This is the latest recevied weather packets stored in our database for station/object DB0LHR-6. If no packets are shown the sender has not sent any weather packets the latest 10 day(s).
| Time | Temp. | Humidity | Pressure | Rain* | Wind** | Luminosity | Snow |
|---|---|---|---|---|---|---|---|
| 1778178676 | 12.22° C | 66% | 1015 hPa | 0 mm | - | - | - |
| 1778177776 | 12.78° C | 65% | 1015 hPa | 0 mm | - | - | - |
| 1778176876 | 13.33° C | 63% | 1015 hPa | 0 mm | - | - | - |
| 1778175976 | 13.33° C | 61% | 1015 hPa | 0 mm | - | - | - |
| 1778175076 | 13.89° C | 60% | 1015 hPa | 0 mm | - | - | - |
| 1778174176 | 13.89° C | 62% | 1015 hPa | 0 mm | - | - | - |
| 1778173276 | 13.89° C | 60% | 1015 hPa | 0 mm | - | - | - |
| 1778172376 | 13.89° C | 61% | 1015 hPa | 0 mm | - | - | - |
| 1778171476 | 14.44° C | 57% | 1015 hPa | 0 mm | - | - | - |
| 1778170576 | 14.44° C | 58% | 1015 hPa | 0 mm | - | - | - |
| 1778169676 | 14.44° C | 55% | 1015 hPa | 0 mm | - | - | - |
| 1778168776 | 14.44° C | 57% | 1015 hPa | 0 mm | - | - | - |
| 1778167876 | 15° C | 55% | 1015 hPa | 0 mm | - | - | - |
| 1778166976 | 14.44° C | 55% | 1015 hPa | 0 mm | - | - | - |
| 1778166076 | 15° C | 54% | 1015 hPa | 0 mm | - | - | - |
| 1778165176 | 15.56° C | 56% | 1015 hPa | 0 mm | - | - | - |
| 1778164276 | 15° C | 62% | 1015 hPa | 0 mm | - | - | - |
| 1778163376 | 15° C | 61% | 1015 hPa | 0 mm | - | - | - |
| 1778162476 | 13.89° C | 70% | 1015 hPa | 0 mm | - | - | - |
| 1778161576 | 13.89° C | 74% | 1015 hPa | 0 mm | - | - | - |
| 1778160676 | 13.33° C | 71% | 1015 hPa | 0 mm | - | - | - |
| 1778159776 | 14.44° C | 64% | 1015 hPa | 0 mm | - | - | - |
| 1778158876 | 15.56° C | 52% | 1015 hPa | 0 mm | - | - | - |
| 1778157976 | 16.11° C | 54% | 1015 hPa | 0 mm | - | - | - |
| 1778157076 | 15.56° C | 54% | 1015 hPa | 0 mm | - | - | - |
* Rain latest 24 hours (hover to see other rain measurements)
** Current wind speed in m/s (hover to see current wind gust speed)